Latest Weather Observations for Low Rocky Point

IDT60801

Issued at 10:05 pm EST Thursday 2 October 2014 (issued every 30 minutes, with the page automatically refreshed every 10 minutes)

About weather observations | Map of weather stations | Latest weather observations for TAS | Other Formats
Station Details ID: 097080 Name: LOW ROCKY POINT Lat: -42.98 Lon: 145.50 Height: 34.0 m
Data from the previous 72 hours. | See also: Recent months at Low Rocky Point
Date/Time
EST
Temp
°C
App
Temp
°C
Dew
Point
Rel
Hum
%
Delta-T
°C
Wind Press
QNH
hPa
Press
MSL
hPa
Rain
since 9 am
mm
Dir
 
Spd
km/h
Gust
km/h
Spd
kts
Gust
kts
02/10:00pm 9.9 4.1 4.5 69 2.4 WSW 24 33 13 18 1021.5 1021.5 0.6
02/09:30pm 9.6 4.6 4.4 70 2.3 SW 20 28 11 15 1021.5 1021.5 0.6
02/09:00pm 9.8 3.1 5.4 74 2.0 SW 30 41 16 22 1021.4 1021.4 0.6
02/08:30pm 10.0 3.6 5.0 71 2.3 SW 28 41 15 22 1021.2 1021.2 0.6
02/08:00pm 10.3 4.2 4.7 68 2.5 WSW 26 35 14 19 1021.0 1021.0 0.6
02/07:30pm 10.0 4.4 5.6 74 2.0 SW 24 33 13 18 1020.7 1020.7 0.6
02/07:00pm 10.0 4.4 5.4 73 2.1 SW 24 33 13 18 1020.3 1020.3 0.6
02/06:30pm 10.1 5.2 5.3 72 2.2 SW 20 33 11 18 1020.0 1020.0 0.6
02/06:00pm 10.3 5.4 5.1 70 2.4 SW 20 30 11 16 1019.9 1019.9 0.6
02/05:30pm 10.4 5.1 4.8 68 2.5 SW 22 33 12 18 1019.7 1019.7 0.6
02/05:00pm 10.8 5.3 5.8 71 2.3 SW 24 35 13 19 1019.4 1019.4 0.6
02/04:30pm 11.4 4.3 5.3 66 2.8 SW 32 43 17 23 1019.2 1019.2 0.6
02/04:00pm 11.7 4.7 6.2 69 2.6 SW 32 43 17 23 1018.9 1018.9 0.6
02/03:30pm 12.2 7.1 7.5 73 2.3 SW 24 37 13 20 1018.8 1018.8 0.6
02/03:00pm 12.2 6.5 6.7 69 2.6 WSW 26 35 14 19 1018.5 1018.5 0.6
02/02:30pm 13.5 8.0 7.5 67 2.9 WSW 26 37 14 20 1018.3 1018.3 0.6
02/02:00pm 13.0 7.1 7.5 69 2.7 WSW 28 41 15 22 1018.2 1018.2 0.6
02/01:30pm 12.9 7.0 9.0 77 2.0 SW 30 39 16 21 1018.0 1018.0 0.6
02/01:00pm 12.1 6.3 9.5 84 1.3 SW 30 41 16 22 1017.7 1017.7 0.6
02/12:30pm 13.0 8.5 11.4 90 0.8 WSW 26 35 14 19 1017.5 1017.5 0.6
02/12:00pm 11.2 4.8 9.3 88 1.0 WSW 33 44 18 24 1017.4 1017.4 0.6
02/11:30am 12.5 5.5 9.9 84 1.3 W 37 46 20 25 1017.2 1017.2 0.0
02/11:00am 11.7 4.6 9.6 87 1.1 W 37 52 20 28 1017.2 1017.2 0.0
02/10:58am 11.6 4.1 9.5 87 1.1 W 39 57 21 31 1017.2 1017.2 0.0
02/10:30am 12.8 6.3 10.3 85 1.3 W 35 44 19 24 1016.9 1016.9 0.0
02/10:00am 11.9 5.9 10.0 88 1.0 W 32 41 17 22 1016.9 1016.9 0.0
02/09:30am 11.9 5.5 9.5 85 1.2 W 33 43 18 23 1016.9 1016.9 0.0
02/09:00am 12.0 5.0 10.1 88 1.0 W 37 46 20 25 1016.7 1016.7 1.6
02/08:30am 11.8 4.9 10.4 91 0.7 W 37 46 20 25 1016.3 1016.3 1.6
02/08:00am 11.6 4.3 10.3 92 0.7 W 39 46 21 25 1016.0 1015.9 1.6
02/07:30am 10.5 2.7 9.6 94 0.5 W 41 54 22 29 1015.9 1015.9 1.6
02/07:00am 11.2 4.0 10.6 96 0.3 W 39 50 21 27 1015.4 1015.4 1.6
02/06:30am 10.8 2.7 10.2 96 0.3 W 43 54 23 29 1015.3 1015.4 1.6
02/06:00am 10.7 2.6 9.9 95 0.4 W 43 52 23 28 1014.9 1014.9 1.6
02/05:30am 10.6 1.9 10.0 96 0.3 W 46 61 25 33 1014.8 1014.9 1.6
02/05:00am 10.7 3.0 10.1 96 0.3 W 41 54 22 29 1014.5 1014.5 1.4
02/04:30am 11.2 3.2 10.4 95 0.4 W 43 54 23 29 1014.2 1014.3 1.2
02/04:00am 10.4 2.2 9.8 96 0.3 W 43 54 23 29 1014.2 1014.2 1.0
02/03:36am 11.0 2.4 10.2 95 0.4 WNW 46 67 25 36 1014.2 1014.3 1.0
02/03:30am 11.0 2.4 10.4 96 0.3 WNW 46 54 25 29 1014.2 1014.3 1.0
02/03:00am 10.9 2.3 10.3 96 0.3 WNW 46 61 25 33 1014.3 1014.3 0.8
02/02:30am 10.8 0.6 9.9 94 0.5 WNW 54 69 29 37 1014.1 1014.2 0.8
02/02:01am 10.9 1.4 9.8 93 0.6 WNW 50 69 27 37 1013.9 1014.0 0.8
02/02:00am 11.0 2.0 10.1 94 0.5 WNW 48 61 26 33 1014.0 1014.0 0.8
02/01:30am 11.0 0.8 9.9 93 0.6 WNW 54 65 29 35 1014.2 1014.3 0.4
02/01:00am 11.0 1.6 10.2 95 0.4 WNW 50 59 27 32 1014.3 1014.3 0.4
02/12:30am 11.5 3.2 10.2 92 0.7 NW 44 57 24 31 1014.4 1014.5 0.4
02/12:00am 11.5 2.5 10.1 91 0.7 WNW 48 56 26 30 1014.8 1014.8 0.4
 
Date/Time
EST
Temp
°C
App
Temp
°C
Dew
Point
Rel
Hum
%
Delta-T
°C
Wind Press
QNH
hPa
Press
MSL
hPa
Rain
since 9 am
mm
Dir
 
Spd
km/h
Gust
km/h
Spd
kts
Gust
kts
01/11:30pm 11.1 1.3 10.2 94 0.5 WNW 52 65 28 35 1014.6 1014.7 0.4
01/11:00pm 11.3 1.5 10.2 93 0.6 WNW 52 65 28 35 1014.8 1014.8 0.4
01/10:30pm 11.1 1.2 9.9 92 0.6 WNW 52 63 28 34 1015.0 1015.1 0.4
01/10:00pm 11.5 2.4 9.9 90 0.8 WNW 48 61 26 33 1015.6 1015.5 0.2
01/09:30pm 11.7 2.0 10.3 91 0.7 WNW 52 61 28 33 1015.7 1015.7 0.2
01/09:00pm 11.4 2.3 10.0 91 0.7 WNW 48 61 26 33 1015.6 1015.5 0.2
01/08:30pm 11.6 3.0 10.3 92 0.7 WNW 46 57 25 31 1015.4 1015.5 0.2
01/08:00pm 11.7 3.1 10.3 91 0.7 WNW 46 57 25 31 1015.7 1015.6 0.2
01/07:30pm 11.5 2.2 10.4 93 0.6 WNW 50 61 27 33 1015.7 1015.7 0.2
01/07:00pm 11.2 2.2 10.1 93 0.6 NW 48 59 26 32 1015.4 1015.4 0.2
01/06:37pm 11.5 2.8 9.8 89 0.9 NW 46 69 25 37 1015.4 1015.5 0.2
01/06:30pm 11.6 2.9 9.9 89 0.9 NW 46 57 25 31 1015.6 1015.6 0.2
01/06:00pm 11.2 2.3 9.3 88 1.0 NW 46 57 25 31 1015.8 1015.7 0.2
01/05:30pm 11.2 1.3 8.1 81 1.5 WNW 50 63 27 34 1016.0 1016.0 0.2
01/05:00pm 11.5 2.2 7.6 77 1.9 WNW 46 57 25 31 1015.9 1015.8 0.2
01/04:30pm 11.4 2.0 7.1 75 2.1 WNW 46 59 25 32 1016.2 1016.2 0.2
01/04:00pm 11.5 2.4 6.8 73 2.2 WNW 44 57 24 31 1016.3 1016.2 0.2
01/03:30pm 11.6 2.4 6.5 71 2.4 WNW 44 54 24 29 1016.5 1016.5 0.2
01/03:00pm 12.5 3.8 6.1 65 3.0 WNW 41 50 22 27 1016.4 1016.3 0.2
01/02:30pm 12.1 3.1 6.2 67 2.8 WNW 43 50 23 27 1016.8 1016.8 0.2
01/02:00pm 12.1 2.7 5.5 64 3.1 WNW 44 54 24 29 1016.7 1016.7 0.2
01/01:30pm 12.4 3.2 5.3 62 3.3 W 43 52 23 28 1016.6 1016.6 0.2
01/01:00pm 12.4 3.2 5.3 62 3.3 W 43 50 23 27 1016.9 1016.9 0.2
01/12:30pm 12.5 3.7 5.4 62 3.3 W 41 48 22 26 1016.8 1016.8 0.2
01/12:00pm 11.7 2.8 5.3 65 2.9 W 41 48 22 26 1016.9 1016.9 0.2
01/11:30am 12.0 3.5 5.0 62 3.2 WNW 39 48 21 26 1016.5 1016.5 0.2
01/11:00am 11.9 3.7 6.4 69 2.6 W 39 48 21 26 1016.8 1016.8 0.2
01/10:36am 10.4 3.3 6.2 75 2.0 W 33 52 18 28 1016.6 1016.6 0.0
01/10:30am 10.3 1.7 4.9 69 2.4 W 39 52 21 28 1016.6 1016.6 0.0
01/10:00am 11.5 3.3 4.5 62 3.2 W 37 46 20 25 1016.2 1016.1 0.0
01/09:30am 11.2 2.9 4.2 62 3.1 W 37 50 20 27 1016.0 1016.0 0.0
01/09:00am 10.5 2.7 4.9 68 2.5 W 35 44 19 24 1015.7 1015.6 14.0
01/08:30am 10.5 2.6 6.3 75 2.0 W 37 46 20 25 1015.3 1015.4 14.0
01/08:00am 8.1 1.5 4.3 77 1.7 W 28 39 15 21 1014.9 1014.9 14.0
01/07:36am 9.0 1.8 5.0 76 1.8 WSW 32 50 17 27 1014.7 1014.8 13.8
01/07:30am 10.1 2.5 5.9 75 1.9 WSW 35 50 19 27 1014.6 1014.7 13.8
01/07:00am 8.2 3.2 4.6 78 1.6 SW 20 32 11 17 1014.1 1014.1 13.8
01/06:46am 9.0 2.6 5.0 76 1.8 SW 28 57 15 31 1013.8 1013.9 13.6
01/06:30am 9.1 2.3 4.9 75 1.9 SW 30 41 16 22 1013.3 1013.4 13.6
01/06:00am 9.0 1.5 4.4 73 2.0 SW 33 46 18 25 1012.9 1012.9 13.6
01/05:30am 8.8 3.1 4.8 76 1.8 WSW 24 37 13 20 1011.9 1012.0 13.6
01/05:05am 8.3 1.6 3.8 73 1.9 SW 28 46 15 25 1011.4 1011.5 13.6
01/05:00am 8.1 0.4 3.4 72 2.0 SSW 33 46 18 25 1011.3 1011.3 13.6
01/04:54am 9.7 2.2 4.7 71 2.2 WSW 33 57 18 31 1011.0 1011.1 13.6
01/04:30am 9.2 1.7 4.4 72 2.1 WSW 33 46 18 25 1010.7 1010.8 13.6
01/04:19am 8.9 -1.1 4.1 72 2.1 W 46 56 25 30 1010.5 1010.6 13.6
01/04:00am 9.5 1.6 4.5 71 2.2 SW 35 54 19 29 1010.0 1010.0 13.6
01/03:57am 9.7 2.2 4.5 70 2.3 SW 33 52 18 28 1009.9 1010.0 13.6
01/03:30am 9.4 1.9 4.4 71 2.2 SW 33 48 18 26 1009.5 1009.6 13.6
01/03:00am 9.3 1.4 4.5 72 2.1 WSW 35 48 19 26 1009.0 1009.0 13.6
01/02:30am 8.8 -0.7 4.0 72 2.1 SW 43 56 23 30 1008.3 1008.4 13.6
01/02:01am 8.0 -1.7 3.7 74 1.9 W 44 63 24 34 1008.2 1008.3 13.6
01/02:00am 8.2 -2.3 3.9 74 1.9 W 48 63 26 34 1008.2 1008.2 13.6
01/01:37am 8.4 1.8 4.4 76 1.8 WSW 28 46 15 25 1007.7 1007.8 13.6
01/01:30am 8.3 2.1 4.1 75 1.8 WSW 26 39 14 21 1007.7 1007.8 13.6
01/01:00am 8.9 -0.3 3.3 68 2.4 WSW 41 56 22 30 1007.3 1007.3 13.4
01/12:30am 9.1 -0.5 4.3 72 2.1 WSW 44 57 24 31 1006.7 1006.8 13.4
01/12:00am 9.1 -0.1 3.5 68 2.4 W 41 52 22 28 1006.2 1006.2 13.4
 
Date/Time
EST
Temp
°C
App
Temp
°C
Dew
Point
Rel
Hum
%
Delta-T
°C
Wind Press
QNH
hPa
Press
MSL
hPa
Rain
since 9 am
mm
Dir
 
Spd
km/h
Gust
km/h
Spd
kts
Gust
kts
30/11:31pm 9.1 0.3 3.7 69 2.3 WSW 39 57 21 31 1005.7 1005.8 13.4
30/11:30pm 8.9 -0.3 3.3 68 2.4 WSW 41 57 22 31 1005.7 1005.8 13.4
30/11:00pm 9.0 -0.6 3.2 67 2.5 WSW 43 56 23 30 1005.2 1005.2 13.4
30/10:30pm 9.3 1.0 4.1 70 2.3 WSW 37 56 20 30 1004.7 1004.7 13.4
30/10:28pm 9.5 1.2 4.1 69 2.4 WSW 37 56 20 30 1004.6 1004.6 13.4
30/10:00pm 9.1 -1.3 2.0 61 3.0 W 46 59 25 32 1004.3 1004.3 13.4
30/09:30pm 9.2 0.0 3.6 68 2.4 WSW 41 59 22 32 1003.7 1003.7 13.4
30/09:00pm 9.4 0.1 2.9 64 2.8 WSW 41 61 22 33 1003.0 1003.0 13.4
30/08:51pm 9.4 0.1 2.7 63 2.9 WSW 41 61 22 33 1002.9 1002.9 13.4
30/08:30pm 9.5 -1.2 2.6 62 2.9 W 48 63 26 34 1002.6 1002.6 13.4
30/08:08pm 9.6 0.8 3.6 66 2.6 WSW 39 57 21 31 1002.4 1002.4 13.4
30/08:00pm 9.7 0.6 3.9 67 2.6 WSW 41 54 22 29 1002.3 1002.3 13.4
30/07:30pm 9.6 1.0 4.6 71 2.2 WSW 39 52 21 28 1001.7 1001.7 13.4
30/07:00pm 9.2 -0.6 3.6 68 2.4 WSW 44 57 24 31 1000.7 1000.7 13.4
30/06:30pm 9.4 0.2 5.6 77 1.7 W 43 57 23 31 1000.1 1000.1 13.2
30/06:00pm 7.7 -0.2 4.3 79 1.5 W 35 74 19 40 999.9 999.9 13.2
30/05:37pm 9.7 -0.1 5.3 74 2.0 W 46 69 25 37 999.3 999.3 13.2
30/05:30pm 9.7 0.0 5.7 76 1.8 W 46 57 25 31 998.9 998.9 13.2
30/05:00pm 9.0 0.8 6.4 84 1.2 W 39 48 21 26 998.0 998.0 13.2
30/04:30pm 7.6 0.1 6.1 90 0.7 WSW 35 52 19 28 997.6 997.6 13.2
30/04:19pm 8.1 -2.9 6.9 92 0.6 W 54 72 29 39 997.5 997.5 13.0
30/04:00pm 7.9 -2.7 6.7 92 0.6 W 52 69 28 37 996.5 996.5 12.6
30/03:30pm 8.4 -2.0 7.6 95 0.4 W 52 65 28 35 995.6 995.6 12.0
30/03:21pm 8.7 0.5 8.1 96 0.3 W 41 61 22 33 995.4 995.4 11.6
30/03:02pm 8.3 0.3 7.5 95 0.4 WSW 39 52 21 28 995.3 995.3 11.2
30/03:00pm 8.3 -0.1 7.5 95 0.4 W 41 56 22 30 995.4 995.4 11.2
30/02:30pm 8.3 -0.1 7.5 95 0.4 W 41 52 22 28 995.0 995.0 10.2
30/02:25pm 8.5 0.9 7.7 95 0.4 W 37 50 20 27 995.1 995.1 9.8
30/02:00pm 9.7 2.9 9.1 96 0.3 NW 35 44 19 24 994.8 994.8 8.4
30/01:30pm 9.3 2.7 8.5 95 0.4 NW 33 41 18 22 995.0 995.0 7.6
30/01:00pm 8.8 3.0 8.0 95 0.4 NW 28 35 15 19 994.8 994.8 6.8
30/12:30pm 9.2 0.7 8.6 96 0.3 WNW 43 54 23 29 995.0 995.0 6.2
30/12:00pm 9.1 1.0 8.5 96 0.3 WNW 41 50 22 27 995.5 995.5 4.8
30/11:30am 9.4 3.1 8.8 96 0.3 WNW 32 43 17 23 995.3 995.3 2.6
30/11:00am 9.7 3.4 9.1 96 0.3 WNW 32 37 17 20 995.9 995.9 1.6
30/10:30am 9.9 4.1 9.6 98 0.2 W 30 35 16 19 996.0 996.0 0.8
30/10:05am 10.2 2.4 9.9 98 0.2 WNW 41 63 22 34 996.5 996.5 0.6
30/10:00am 10.3 2.9 10.0 98 0.2 WNW 39 46 21 25 996.5 996.5 0.6
30/09:30am 10.3 3.3 10.0 98 0.2 WNW 37 44 20 24 996.6 996.6 0.2
30/09:00am 10.1 1.9 9.8 98 0.2 WNW 43 52 23 28 996.6 996.6 17.4
30/08:33am 9.9 -0.9 9.3 96 0.3 WNW 56 74 30 40 996.6 996.6 17.2
30/08:30am 10.2 -1.4 9.6 96 0.3 WNW 61 74 33 40 996.6 996.6 16.6
30/08:21am 11.9 0.1 11.6 98 0.2 NNW 65 87 35 47 995.5 995.5 16.4
30/08:18am 11.9 0.1 11.6 98 0.2 NNW 65 76 35 41 995.5 995.5 16.4
30/08:00am 11.3 3.2 10.8 97 0.3 N 44 65 24 35 995.2 995.2 14.8
30/07:30am 11.4 2.1 10.6 95 0.4 N 50 72 27 39 995.6 995.6 12.6
30/07:00am 11.5 1.1 10.6 94 0.5 NNW 56 80 30 43 995.9 995.9 10.4
30/06:30am 11.4 2.0 10.1 92 0.7 NNW 50 80 27 43 996.4 996.4 7.8
30/06:00am 11.6 0.9 9.5 87 1.1 N 56 82 30 44 995.8 995.8 6.2
30/05:30am 12.9 2.9 9.2 78 1.9 NNW 52 80 28 43 996.2 996.2 5.4
30/05:00am 12.6 3.4 9.6 82 1.5 NNW 48 69 26 37 996.5 996.5 5.4
30/04:30am 12.3 3.9 9.7 84 1.3 N 44 67 24 36 997.0 997.0 5.4
30/04:00am 12.2 1.4 9.8 85 1.2 NNW 57 78 31 42 997.5 997.5 5.4
30/03:30am 12.2 2.0 9.9 86 1.2 NNW 54 74 29 40 998.1 998.1 5.4
30/03:00am 11.9 1.9 9.5 85 1.2 NNW 52 72 28 39 998.9 998.9 5.4
30/02:30am 12.1 2.8 9.3 83 1.4 NNW 48 70 26 38 999.3 999.3 5.4
30/02:00am 12.2 2.4 10.1 87 1.1 NNW 52 74 28 40 999.9 999.9 5.4
30/01:43am 12.5 2.5 10.7 89 0.9 NNW 54 72 29 39 1000.6 1000.6 5.4
30/01:30am 12.5 2.0 11.1 91 0.7 NNW 57 70 31 38 1000.6 1000.6 5.4
30/01:00am 12.0 0.9 11.4 96 0.3 NNW 61 80 33 43 1001.1 1001.1 5.4
30/12:30am 11.6 1.0 10.8 95 0.4 NNW 57 76 31 41 1001.6 1001.6 5.4
30/12:24am 11.4 1.4 10.6 95 0.4 NNW 54 74 29 40 1001.6 1001.6 5.4
30/12:02am 10.9 -3.2 9.5 91 0.7 NW 74 93 40 50 1001.7 1001.7 5.2
30/12:00am 10.9 -3.3 9.3 90 0.8 NW 74 89 40 48 1002.0 1002.0 5.0
 
Date/Time
EST
Temp
°C
App
Temp
°C
Dew
Point
Rel
Hum
%
Delta-T
°C
Wind Press
QNH
hPa
Press
MSL
hPa
Rain
since 9 am
mm
Dir
 
Spd
km/h
Gust
km/h
Spd
kts
Gust
kts
29/11:57pm 10.8 -3.8 9.1 89 0.8 NW 76 89 41 48 1002.0 1002.0 4.4
29/11:30pm 11.9 2.5 10.0 88 1.0 NNW 50 72 27 39 1002.1 1002.1 3.4
29/11:00pm 12.2 2.5 10.6 90 0.8 NNW 52 70 28 38 1002.4 1002.4 3.4
29/10:48pm 12.5 2.2 11.1 91 0.7 NNW 56 76 30 41 1002.6 1002.6 3.4
29/10:30pm 12.0 1.7 10.9 93 0.6 NNW 56 70 30 38 1002.9 1002.9 3.4

Other Formats:

Comma delimited format used in spreadsheet applications
http://www.bom.gov.au/fwo/IDT60801/IDT60801.95961.axf

JavaScript Object Notation format (JSON) in row-major order
http://www.bom.gov.au/fwo/IDT60801/IDT60801.95961.json